Poussière dans l’air
Poussière dans l’air
Poussière dans l’air
Poussière dans l’air
Poussière dans l’air
Poussière dans l’air
Poussiéreux
Poussiéreux
Poussiéreux
(°C)
37°
37°
37°
37°
36°
36°
36°
36°
35°
35°
34°
34°
33°
33°
33°
33°
32°
32°
(°C)
35°
34°
33°
32°
31°
30°
30°
30°
29°
SSO
SSO
SO
OSO
O
ONO
NNO
NNE
NE
(km/h)
14-22
13-21
14-22
14-22
15-20
14-18
12-17
11-16
10-16
(mm)
0
0
0
0
0
0
0
0
0
(%)
0
0
0
0
0
0
0
0
0

Élévation du soleil

/ 53°
sun-icon
UV 8
05:53
19:27
Gibbeuse décroissante (212°)
21:59
08:04

METAR pour Tamanghasset (DAAT)

Heure Conditions Température/
Point de rosée
Vent Visibilité Météo Nuages Pression Changement Brut
IFR °C / °C 170º variable 130º to 230º 5kt 4500m Haze Few Clouds 4600ft
Scattered Clouds 10000ft
1017 - DAAT 241400Z 17005KT 130V230 4500 HZ FEW046 SCT100 38/// Q1017
IFR 38°C / -2°C 210º variable 160º to 240º 10kt 4000m Haze Few Clouds 4600ft
Scattered Clouds 10000ft
1017 - DAAT 241330Z 21010KT 160V240 4000 HZ FEW046 SCT100 38/M02 Q1017
IFR 38°C / -3°C 200º variable 120º to 240º 9kt Gust 22kt 3500m Haze Few Clouds 4600ft
Scattered Clouds 10000ft
1017 - DAAT 241300Z 20009G22KT 120V240 3500 HZ FEW046 SCT100 38/M03 Q1017
IFR 38°C / 0°C 210º variable 150º to 230º 10kt 3500m Haze Few Clouds 4600ft
Scattered Clouds 10000ft
1017 - DAAT 241230Z 21010KT 150V230 3500 HZ FEW046 SCT100 38/M00 Q1017
IFR 37°C / -1°C 160º variable 130º to 210º 10kt 3000m Haze Clear 1017 - DAAT 241200Z 16010KT 130V210 3000 HZ NSC 37/M01 Q1017
IFR 38°C / -1°C 190º variable 160º to 230º 7kt 3000m Haze Clear 1018 - DAAT 241130Z 19007KT 160V230 3000 HZ NSC 38/M01 Q1018
IFR 37°C / 0°C 180º variable 140º to 220º 7kt 3000m Haze Clear 1018 - DAAT 241100Z 18007KT 140V220 3000 HZ NSC 37/00 Q1018
IFR 36°C / 1°C 170º variable 150º to 220º 10kt 3000m Haze Clear 1018 - DAAT 241030Z 17010KT 150V220 3000 HZ NSC 36/01 Q1018
IFR 36°C / 2°C 150º 15kt 3000m Haze Clear 1018 - DAAT 241000Z 15015KT 3000 HZ NSC 36/02 Q1018
IFR 35°C / 3°C 150º 11kt 3000m Haze Clear 1018 - DAAT 240930Z 15011KT 3000 HZ NSC 35/03 Q1018
IFR 34°C / 4°C 150º 9kt 3000m Haze Clear 1018 - DAAT 240900Z 15009KT 3000 HZ NSC 34/04 Q1018
IFR 34°C / 5°C 140º 6kt 3000m Haze Clear 1018 - DAAT 240830Z 14006KT 3000 HZ NSC 34/05 Q1018
IFR 32°C / 4°C 120º 6kt 3000m Haze Clear 1018 - DAAT 240800Z 12006KT 3000 HZ NSC 32/04 Q1018
IFR 31°C / 5°C 130º 4kt 2500m Haze Clear 1018 - DAAT 240730Z 13004KT 2500 HZ NSC 31/05 Q1018
IFR 30°C / 6°C 110º 4kt 2500m Haze Clear 1018 - DAAT 240700Z 11004KT 2500 HZ NSC 30/06 Q1018
IFR 30°C / 5°C 2kt 2500m Haze Clear 1018 - DAAT 240630Z VRB02KT 2500 HZ NSC 30/05 Q1018
IFR 29°C / 6°C 130º variable 070º to 170º 3kt 2500m Haze Clear 1017 - DAAT 240600Z 13003KT 070V170 2500 HZ NSC 29/06 Q1017
IFR 28°C / 4°C 110º 4kt 2500m Haze Clear 1017 - DAAT 240530Z 11004KT 2500 HZ NSC 28/04 Q1017
IFR 29°C / 3°C 70º variable 040º to 100º 4kt 2500m Haze Clear 1017 - DAAT 240500Z 07004KT 040V100 2500 HZ NSC 29/03 Q1017
IFR 28°C / 3°C 110º 5kt 4000m Haze Clear 1017 - DAAT 240430Z 11005KT 4000 HZ NSC 28/03 Q1017
IFR 29°C / 3°C 120º 5kt 4000m Haze Clear 1017 - DAAT 240400Z 12005KT 4000 HZ NSC 29/03 Q1017
IFR 28°C / 3°C 120º 6kt 4000m Haze Clear 1017 - DAAT 240330Z 12006KT 4000 HZ NSC 28/03 Q1017
IFR 29°C / 4°C 130º 5kt 4500m Haze Clear 1017 - DAAT 240300Z 13005KT 4500 HZ NSC 29/04 Q1017
IFR 28°C / 4°C 140º 5kt 4500m Haze Clear 1017 - DAAT 240230Z 14005KT 4500 HZ NSC 28/04 Q1017

IFR

°C / °C

[Plus]
Vent 170º variable 130º to 230º 5kt
Visibilité 4500m
Météo Haze
Nuages Few Clouds 4600ft
Scattered Clouds 10000ft
Pression 1017
Changement -
Brut DAAT 241400Z 17005KT 130V230 4500 HZ FEW046 SCT100 38/// Q1017

IFR

38°C / -2°C

[Plus]
Vent 210º variable 160º to 240º 10kt
Visibilité 4000m
Météo Haze
Nuages Few Clouds 4600ft
Scattered Clouds 10000ft
Pression 1017
Changement -
Brut DAAT 241330Z 21010KT 160V240 4000 HZ FEW046 SCT100 38/M02 Q1017

IFR

38°C / -3°C

[Plus]
Vent 200º variable 120º to 240º 9kt Gust 22kt
Visibilité 3500m
Météo Haze
Nuages Few Clouds 4600ft
Scattered Clouds 10000ft
Pression 1017
Changement -
Brut DAAT 241300Z 20009G22KT 120V240 3500 HZ FEW046 SCT100 38/M03 Q1017

IFR

38°C / 0°C

[Plus]
Vent 210º variable 150º to 230º 10kt
Visibilité 3500m
Météo Haze
Nuages Few Clouds 4600ft
Scattered Clouds 10000ft
Pression 1017
Changement -
Brut DAAT 241230Z 21010KT 150V230 3500 HZ FEW046 SCT100 38/M00 Q1017

IFR

37°C / -1°C

[Plus]
Vent 160º variable 130º to 210º 10kt
Visibilité 3000m
Météo Haze
Nuages Clear
Pression 1017
Changement -
Brut DAAT 241200Z 16010KT 130V210 3000 HZ NSC 37/M01 Q1017

IFR

38°C / -1°C

[Plus]
Vent 190º variable 160º to 230º 7kt
Visibilité 3000m
Météo Haze
Nuages Clear
Pression 1018
Changement -
Brut DAAT 241130Z 19007KT 160V230 3000 HZ NSC 38/M01 Q1018

IFR

37°C / 0°C

[Plus]
Vent 180º variable 140º to 220º 7kt
Visibilité 3000m
Météo Haze
Nuages Clear
Pression 1018
Changement -
Brut DAAT 241100Z 18007KT 140V220 3000 HZ NSC 37/00 Q1018

IFR

36°C / 1°C

[Plus]
Vent 170º variable 150º to 220º 10kt
Visibilité 3000m
Météo Haze
Nuages Clear
Pression 1018
Changement -
Brut DAAT 241030Z 17010KT 150V220 3000 HZ NSC 36/01 Q1018

IFR

36°C / 2°C

[Plus]
Vent 150º 15kt
Visibilité 3000m
Météo Haze
Nuages Clear
Pression 1018
Changement -
Brut DAAT 241000Z 15015KT 3000 HZ NSC 36/02 Q1018

IFR

35°C / 3°C

[Plus]
Vent 150º 11kt
Visibilité 3000m
Météo Haze
Nuages Clear
Pression 1018
Changement -
Brut DAAT 240930Z 15011KT 3000 HZ NSC 35/03 Q1018

IFR

34°C / 4°C

[Plus]
Vent 150º 9kt
Visibilité 3000m
Météo Haze
Nuages Clear
Pression 1018
Changement -
Brut DAAT 240900Z 15009KT 3000 HZ NSC 34/04 Q1018

IFR

34°C / 5°C

[Plus]
Vent 140º 6kt
Visibilité 3000m
Météo Haze
Nuages Clear
Pression 1018
Changement -
Brut DAAT 240830Z 14006KT 3000 HZ NSC 34/05 Q1018

IFR

32°C / 4°C

[Plus]
Vent 120º 6kt
Visibilité 3000m
Météo Haze
Nuages Clear
Pression 1018
Changement -
Brut DAAT 240800Z 12006KT 3000 HZ NSC 32/04 Q1018

IFR

31°C / 5°C

[Plus]
Vent 130º 4kt
Visibilité 2500m
Météo Haze
Nuages Clear
Pression 1018
Changement -
Brut DAAT 240730Z 13004KT 2500 HZ NSC 31/05 Q1018

IFR

30°C / 6°C

[Plus]
Vent 110º 4kt
Visibilité 2500m
Météo Haze
Nuages Clear
Pression 1018
Changement -
Brut DAAT 240700Z 11004KT 2500 HZ NSC 30/06 Q1018

IFR

30°C / 5°C

[Plus]
Vent 2kt
Visibilité 2500m
Météo Haze
Nuages Clear
Pression 1018
Changement -
Brut DAAT 240630Z VRB02KT 2500 HZ NSC 30/05 Q1018

IFR

29°C / 6°C

[Plus]
Vent 130º variable 070º to 170º 3kt
Visibilité 2500m
Météo Haze
Nuages Clear
Pression 1017
Changement -
Brut DAAT 240600Z 13003KT 070V170 2500 HZ NSC 29/06 Q1017

IFR

28°C / 4°C

[Plus]
Vent 110º 4kt
Visibilité 2500m
Météo Haze
Nuages Clear
Pression 1017
Changement -
Brut DAAT 240530Z 11004KT 2500 HZ NSC 28/04 Q1017

IFR

29°C / 3°C

[Plus]
Vent 70º variable 040º to 100º 4kt
Visibilité 2500m
Météo Haze
Nuages Clear
Pression 1017
Changement -
Brut DAAT 240500Z 07004KT 040V100 2500 HZ NSC 29/03 Q1017

IFR

28°C / 3°C

[Plus]
Vent 110º 5kt
Visibilité 4000m
Météo Haze
Nuages Clear
Pression 1017
Changement -
Brut DAAT 240430Z 11005KT 4000 HZ NSC 28/03 Q1017

IFR

29°C / 3°C

[Plus]
Vent 120º 5kt
Visibilité 4000m
Météo Haze
Nuages Clear
Pression 1017
Changement -
Brut DAAT 240400Z 12005KT 4000 HZ NSC 29/03 Q1017

IFR

28°C / 3°C

[Plus]
Vent 120º 6kt
Visibilité 4000m
Météo Haze
Nuages Clear
Pression 1017
Changement -
Brut DAAT 240330Z 12006KT 4000 HZ NSC 28/03 Q1017

IFR

29°C / 4°C

[Plus]
Vent 130º 5kt
Visibilité 4500m
Météo Haze
Nuages Clear
Pression 1017
Changement -
Brut DAAT 240300Z 13005KT 4500 HZ NSC 29/04 Q1017

IFR

28°C / 4°C

[Plus]
Vent 140º 5kt
Visibilité 4500m
Météo Haze
Nuages Clear
Pression 1017
Changement -
Brut DAAT 240230Z 14005KT 4500 HZ NSC 28/04 Q1017

TAF pour Tamanghasset (DAAT)

From till


From till Wind 160º 8kt. Visibility 3000m. Haze . Nil Significant Cloud.
Becoming from till
With 30% probability, Temporarly from till Wind 220º 15kt. Gust 30kt. Visibility 4000m. Light Thunderstorm Rain . Few Clouds 4600ft.
Becoming from till

Brut: TAF DAAT 241100Z 2412/2512 16008KT 3000 HZ NSC BECMG 2413/2415 20012KT 6000 NSW PROB30 TEMPO 2414/2420 22015G30KT 4000 -TSRA FEW046CB BECMG 2415/2417 02012KT

Radar pour Tamanghasset

Bruine
Légère
Modéré
Fort
Très fort
Grêle

Le marqueur est placé sur Tamanghasset. Les croix orange indiquent la foudre. Données fournies par nowcast.de (disponibles aux États-Unis, en Europe et en Australie). Une bruine ou une légère chute de neige peut être invisible pour le radar. L'intensité des précipitations est codée par couleur, allant du turquoise au rouge.

Les images satellites et les pluies actuelles pour Tamanghasset, Algérie

Le marqueur est placé sur Tamanghasset. [Plus]

L'image satellite en temps réel combine la lumière visible pendant la journée et le rayonnement infrarouge pendant la nuit. La nuit, l'image n'est pas sombre car le rayonnement infrarouge permet de détecter les différences de température. Malheureusement, les nuages bas et le brouillard sont difficiles à distinguer des températures au sol et peuvent donc être presque invisibles pendant la nuit. Les images des satellites Météosat pour l'Europe sont mises à jour en temps réel toutes les 5 minutes. Les images GOES-16/GOES-17 (Amérique du Nord et du Sud) et Himawari (Asie) sont mises à jour toutes les 10 minutes.

Les précipitations sont estimées à partir de radars et de satellites. Les estimations des précipitations par satellite sont moins précises la nuit que le jour.

© 2024 meteoblue, NOAA Satellites GOES-16 and EUMETSAT. Données de foudre fournies par nowcast.

Retour vers le haut
×
Salut,
Il semble que vous utilisiez un logiciel antipub.

La publicité est essentielle pour maintenir notre site web gratuit avec des détails et précision uniques.

Veuillez mettre www.meteoblue.com sur la liste blanche de votre bloqueur de publicité ou envisager d'acheter l'un de nos produits :

Vous avez déjà un abonnement ?
Dans ce cas, veuillez vous connecter.